createdAt,value
2023-05-05T00:00:21.415Z,67.47
2023-05-05T00:01:44.265Z,68.20
2023-05-05T00:02:48.170Z,67.90
2023-05-05T00:03:51.136Z,67.92
2023-05-05T00:04:53.996Z,67.60
2023-05-05T00:05:57.466Z,67.51
2023-05-05T00:07:00.536Z,67.61
2023-05-05T00:08:03.563Z,67.91
2023-05-05T00:09:07.113Z,68.22
2023-05-05T00:10:10.601Z,68.15
2023-05-05T00:11:13.463Z,68.59
2023-05-05T00:12:16.213Z,68.95
2023-05-05T00:13:20.698Z,68.56
2023-05-05T00:14:23.582Z,68.38
2023-05-05T00:15:27.450Z,68.25
2023-05-05T00:16:30.490Z,68.46
2023-05-05T00:17:33.441Z,68.42
2023-05-05T00:18:36.300Z,68.51
2023-05-05T00:19:39.242Z,68.61
2023-05-05T00:20:42.879Z,68.74
2023-05-05T00:21:45.734Z,68.60
2023-05-05T00:22:48.780Z,69.02
2023-05-05T00:23:51.811Z,69.48
2023-05-05T00:24:54.754Z,69.25
2023-05-05T00:25:57.543Z,69.09
2023-05-05T00:27:02.167Z,68.88
2023-05-05T00:28:05.316Z,68.62
2023-05-05T00:29:08.320Z,68.37
2023-05-05T00:30:11.596Z,68.23
2023-05-05T00:31:17.485Z,68.04
2023-05-05T00:32:20.414Z,67.64
2023-05-05T00:33:23.641Z,67.40
2023-05-05T00:34:26.484Z,67.30
2023-05-05T00:35:29.397Z,67.23
2023-05-05T00:36:32.250Z,67.03
2023-05-05T00:37:35.045Z,66.87
2023-05-05T00:38:38.200Z,66.77
2023-05-05T00:39:41.058Z,66.67
2023-05-05T00:40:44.033Z,66.67
2023-05-05T00:41:46.909Z,66.49
2023-05-05T00:42:50.913Z,66.35
2023-05-05T00:43:53.763Z,66.32
2023-05-05T00:44:57.476Z,66.37
2023-05-05T00:46:04.194Z,66.09
2023-05-05T00:47:09.320Z,65.93
2023-05-05T00:48:12.267Z,65.80
2023-05-05T00:49:16.462Z,65.70
2023-05-05T00:50:30.540Z,65.64
2023-05-05T00:51:35.320Z,65.66
2023-05-05T00:52:39.017Z,65.58
2023-05-05T00:53:44.956Z,65.45
2023-05-05T00:54:48.065Z,65.33
2023-05-05T00:55:51.450Z,65.18
2023-05-05T00:56:54.433Z,65.24
2023-05-05T00:57:58.942Z,65.28
2023-05-05T00:59:02.675Z,65.17
2023-05-05T01:00:06.421Z,65.10
2023-05-05T01:01:11.407Z,65.14
2023-05-05T01:02:14.481Z,65.06
2023-05-05T01:03:17.462Z,64.85
2023-05-05T01:04:20.354Z,64.68
2023-05-05T01:05:27.046Z,64.69
2023-05-05T01:07:04.043Z,64.61
2023-05-05T01:08:28.244Z,64.51
2023-05-05T01:09:42.908Z,64.34
2023-05-05T01:10:52.473Z,64.20
2023-05-05T01:12:05.309Z,63.87
2023-05-05T01:13:24.888Z,63.92
2023-05-05T01:14:39.974Z,64.03
2023-05-05T01:15:50.629Z,64.04
2023-05-05T01:16:53.373Z,63.95
2023-05-05T01:18:09.803Z,64.01
2023-05-05T01:19:36.105Z,64.07
2023-05-05T01:20:49.447Z,63.95
2023-05-05T01:21:57.202Z,63.89
2023-05-05T01:23:05.920Z,63.83
2023-05-05T01:24:46.957Z,63.67
2023-05-05T01:26:16.274Z,63.64
2023-05-05T01:27:46.678Z,63.59
2023-05-05T01:29:14.784Z,63.67
2023-05-05T01:32:02.464Z,63.44
2023-05-05T01:33:11.109Z,63.36
2023-05-05T01:34:17.150Z,62.99
2023-05-05T01:35:27.237Z,62.80
2023-05-05T01:36:37.123Z,62.81
2023-05-05T01:37:46.003Z,62.88
2023-05-05T01:38:55.814Z,62.96
2023-05-05T01:40:03.829Z,63.08
2023-05-05T01:41:19.638Z,63.04
2023-05-05T01:42:25.257Z,62.96
2023-05-05T01:43:32.435Z,62.95
2023-05-05T01:44:37.779Z,62.96
2023-05-05T01:45:43.877Z,63.01
2023-05-05T01:46:48.876Z,63.14
2023-05-05T01:47:52.619Z,63.20
2023-05-05T01:48:56.783Z,63.35
2023-05-05T01:50:00.451Z,63.38
2023-05-05T01:51:05.289Z,63.29
2023-05-05T01:52:09.989Z,63.18
2023-05-05T01:53:13.419Z,63.14
2023-05-05T01:54:18.723Z,63.13
2023-05-05T01:55:25.823Z,63.12
2023-05-05T01:56:31.574Z,63.24
2023-05-05T01:57:36.818Z,63.18
2023-05-05T01:58:43.884Z,63.30
2023-05-05T01:59:46.996Z,63.25
2023-05-05T02:00:51.826Z,63.25
2023-05-05T02:01:57.452Z,63.21
2023-05-05T02:03:05.160Z,63.27
2023-05-05T02:04:11.932Z,63.29
2023-05-05T02:05:17.124Z,63.52
2023-05-05T02:06:21.967Z,63.42
2023-05-05T02:07:26.315Z,63.44
2023-05-05T02:08:31.420Z,63.66
2023-05-05T02:09:34.604Z,63.51
2023-05-05T02:10:40.988Z,63.54
2023-05-05T02:11:44.095Z,63.69
2023-05-05T02:12:47.846Z,63.80
2023-05-05T02:13:52.322Z,63.90
2023-05-05T02:14:56.297Z,63.95
2023-05-05T02:16:00.432Z,63.89
2023-05-05T02:17:04.080Z,63.92
2023-05-05T02:18:07.591Z,64.18
2023-05-05T02:19:13.066Z,64.11
2023-05-05T02:20:17.079Z,64.37
2023-05-05T02:21:20.662Z,64.13
2023-05-05T02:22:23.484Z,64.12
2023-05-05T02:23:26.445Z,64.11
2023-05-05T02:24:30.198Z,64.22
2023-05-05T02:25:40.124Z,64.08
2023-05-05T02:26:45.906Z,63.36
2023-05-05T02:27:53.216Z,62.59
2023-05-05T02:29:05.661Z,62.51
2023-05-05T02:30:11.300Z,62.30
2023-05-05T02:31:16.572Z,61.77
2023-05-05T02:32:34.161Z,60.91
2023-05-05T02:33:38.401Z,60.89
2023-05-05T02:34:44.853Z,60.90
2023-05-05T02:35:51.903Z,60.66
2023-05-05T02:37:00.837Z,60.71
2023-05-05T02:38:09.635Z,60.63
2023-05-05T02:39:24.151Z,60.54
2023-05-05T02:40:30.036Z,60.51
2023-05-05T02:41:36.128Z,60.11
2023-05-05T02:42:46.378Z,60.28
2023-05-05T02:43:51.097Z,60.31
2023-05-05T02:44:59.135Z,60.03
2023-05-05T02:46:02.145Z,59.82
2023-05-05T02:47:05.183Z,59.40
2023-05-05T02:48:10.595Z,59.53
2023-05-05T02:49:15.152Z,59.70
2023-05-05T02:50:18.908Z,59.64
2023-05-05T02:51:28.829Z,59.48
2023-05-05T02:52:34.103Z,60.47
2023-05-05T02:53:37.158Z,60.34
2023-05-05T02:54:40.326Z,61.21
2023-05-05T02:55:55.010Z,61.10
2023-05-05T02:57:01.363Z,61.32
2023-05-05T02:58:07.615Z,60.85
2023-05-05T02:59:21.901Z,61.49
2023-05-05T03:00:52.635Z,62.24
2023-05-05T03:02:27.299Z,62.43
2023-05-05T03:04:15.484Z,62.77
2023-05-05T03:05:24.342Z,62.57
2023-05-05T03:06:29.244Z,62.35
2023-05-05T03:07:39.321Z,61.90
2023-05-05T03:08:52.593Z,61.20
2023-05-05T03:09:57.833Z,60.12
2023-05-05T03:11:06.854Z,60.21
2023-05-05T03:12:16.597Z,59.71
2023-05-05T03:13:37.773Z,59.49
2023-05-05T03:14:44.682Z,59.26
2023-05-05T03:15:52.426Z,59.46
2023-05-05T03:16:57.230Z,59.65
2023-05-05T03:18:02.481Z,59.59
2023-05-05T03:19:08.652Z,60.24
2023-05-05T03:20:12.565Z,60.55
2023-05-05T03:21:16.971Z,60.45
2023-05-05T03:22:19.890Z,60.63
2023-05-05T03:23:23.127Z,61.40
2023-05-05T03:24:29.862Z,61.46
2023-05-05T03:25:50.087Z,61.85
2023-05-05T03:27:01.558Z,61.98
2023-05-05T03:28:08.346Z,62.35
2023-05-05T03:29:12.213Z,62.38
2023-05-05T03:30:15.548Z,62.33
2023-05-05T03:31:23.635Z,62.31
2023-05-05T03:32:30.887Z,61.83
2023-05-05T03:33:33.733Z,61.57
2023-05-05T03:34:37.831Z,60.91
2023-05-05T03:35:41.347Z,59.82
2023-05-05T03:36:45.594Z,59.27
2023-05-05T03:37:49.366Z,58.79
2023-05-05T03:38:52.382Z,58.57
2023-05-05T03:39:55.510Z,58.49
2023-05-05T03:41:02.136Z,58.60
2023-05-05T03:42:05.181Z,58.82
2023-05-05T03:43:08.532Z,59.25
2023-05-05T03:44:11.409Z,59.29
2023-05-05T03:45:14.416Z,59.65
2023-05-05T03:46:17.511Z,59.73
2023-05-05T03:47:20.557Z,59.55
2023-05-05T03:48:23.396Z,59.47
2023-05-05T03:49:26.737Z,59.40
2023-05-05T03:50:30.138Z,60.03
2023-05-05T03:51:32.999Z,60.13
2023-05-05T03:52:36.043Z,60.40
2023-05-05T03:53:39.156Z,60.24
2023-05-05T03:54:43.132Z,60.44
2023-05-05T03:55:46.307Z,60.02
2023-05-05T03:56:49.134Z,59.89
2023-05-05T03:57:51.886Z,59.93
2023-05-05T03:58:54.722Z,59.98
2023-05-05T03:59:57.576Z,59.78
2023-05-05T04:01:00.653Z,60.00
2023-05-05T04:02:03.595Z,60.17
2023-05-05T04:03:06.808Z,60.49
2023-05-05T04:04:10.301Z,60.27
2023-05-05T04:05:13.236Z,60.09
2023-05-05T04:06:16.255Z,60.10
2023-05-05T04:07:19.199Z,59.46
2023-05-05T04:08:22.081Z,59.36
2023-05-05T04:09:24.904Z,58.21
2023-05-05T04:10:28.181Z,58.59
2023-05-05T04:11:31.358Z,58.29
2023-05-05T04:12:34.243Z,58.37
2023-05-05T04:13:37.108Z,58.18
2023-05-05T04:14:39.868Z,57.94
2023-05-05T04:15:46.585Z,57.50
2023-05-05T04:16:50.053Z,57.17
2023-05-05T04:17:52.948Z,57.26
2023-05-05T04:18:55.864Z,57.51
2023-05-05T04:19:58.787Z,56.28
2023-05-05T04:21:01.770Z,57.37
2023-05-05T04:22:04.662Z,57.31
2023-05-05T04:23:07.545Z,57.41
2023-05-05T04:24:10.547Z,57.22
2023-05-05T04:25:13.381Z,57.21
2023-05-05T04:26:16.491Z,56.96
2023-05-05T04:27:19.473Z,56.94
2023-05-05T04:28:22.304Z,56.58
2023-05-05T04:29:25.277Z,56.47
2023-05-05T04:30:28.281Z,56.73
2023-05-05T04:31:32.100Z,56.71
2023-05-05T04:32:35.869Z,56.95
2023-05-05T04:33:38.847Z,56.61
2023-05-05T04:34:41.848Z,56.85
2023-05-05T04:35:44.737Z,56.50
2023-05-05T04:36:47.775Z,56.31
2023-05-05T04:37:51.131Z,56.14
2023-05-05T04:38:54.023Z,55.67
2023-05-05T04:39:57.014Z,54.73
2023-05-05T04:41:00.082Z,55.08
2023-05-05T04:42:03.267Z,54.45
2023-05-05T04:43:07.582Z,54.27
2023-05-05T04:44:10.476Z,54.55
2023-05-05T04:45:13.631Z,53.89
2023-05-05T04:46:17.013Z,53.35
2023-05-05T04:47:19.969Z,53.76
2023-05-05T04:48:23.356Z,53.16
2023-05-05T04:49:28.867Z,53.18
2023-05-05T04:50:32.367Z,53.14
2023-05-05T04:51:35.249Z,53.18
2023-05-05T04:52:38.156Z,52.84
2023-05-05T04:53:40.944Z,52.62
2023-05-05T04:54:43.994Z,51.46
2023-05-05T04:55:46.831Z,51.86
2023-05-05T04:56:50.339Z,51.71
2023-05-05T04:59:12.217Z,51.79
2023-05-05T05:02:45.523Z,51.79
2023-05-05T05:03:57.100Z,52.78
2023-05-05T05:05:11.524Z,53.36
2023-05-05T05:06:14.884Z,53.46
2023-05-05T05:07:18.047Z,53.42
2023-05-05T05:08:21.059Z,53.51
2023-05-05T05:09:23.888Z,53.43
2023-05-05T05:10:26.974Z,53.29
2023-05-05T05:11:29.868Z,53.21
2023-05-05T05:12:32.725Z,53.27
2023-05-05T05:13:35.568Z,53.19
2023-05-05T05:14:38.952Z,53.52
2023-05-05T05:15:42.171Z,53.50
2023-05-05T05:16:45.577Z,53.32
2023-05-05T05:17:48.620Z,52.94
2023-05-05T05:18:51.432Z,52.74
2023-05-05T05:19:55.430Z,52.75
2023-05-05T05:20:58.628Z,53.16
2023-05-05T05:22:01.463Z,53.34
2023-05-05T05:23:05.299Z,53.37
2023-05-05T05:24:11.609Z,53.54
2023-05-05T05:25:14.692Z,53.18
2023-05-05T05:26:17.882Z,53.19
2023-05-05T05:27:20.781Z,53.07
2023-05-05T05:28:24.401Z,53.11
2023-05-05T05:29:30.891Z,53.02
2023-05-05T05:30:34.579Z,53.38
2023-05-05T05:31:40.090Z,53.66
2023-05-05T05:32:43.043Z,53.97
2023-05-05T05:33:46.209Z,54.29
2023-05-05T05:34:49.468Z,54.14
2023-05-05T05:35:52.622Z,54.23
2023-05-05T05:36:56.624Z,53.98
2023-05-05T05:37:59.516Z,54.02
2023-05-05T05:39:02.326Z,54.20
2023-05-05T05:40:06.338Z,54.46
2023-05-05T05:41:09.511Z,54.84
2023-05-05T05:42:13.282Z,54.33
2023-05-05T05:43:16.515Z,54.50
2023-05-05T05:44:19.365Z,54.76
2023-05-05T05:45:22.957Z,55.05
2023-05-05T05:46:25.934Z,55.24
2023-05-05T05:47:29.066Z,55.59
2023-05-05T05:48:31.967Z,55.75
2023-05-05T05:49:34.820Z,55.79
2023-05-05T05:50:37.662Z,56.08
2023-05-05T05:51:40.574Z,56.04
2023-05-05T05:52:43.386Z,55.58
2023-05-05T05:53:46.432Z,55.35
2023-05-05T05:54:49.904Z,54.72
2023-05-05T05:55:52.787Z,54.23
2023-05-05T05:56:55.689Z,53.67
2023-05-05T05:57:58.717Z,53.56
2023-05-05T05:59:02.701Z,52.94
2023-05-05T06:00:06.346Z,52.80
2023-05-05T06:01:15.984Z,52.77
2023-05-05T06:02:20.848Z,52.92
2023-05-05T06:03:24.430Z,53.05
2023-05-05T06:04:27.431Z,53.01
2023-05-05T06:05:31.388Z,53.38
2023-05-05T06:06:34.867Z,53.54
2023-05-05T06:07:37.703Z,53.65
2023-05-05T06:08:40.934Z,53.51
2023-05-05T06:09:43.854Z,53.75
2023-05-05T06:10:48.192Z,54.03
2023-05-05T06:11:53.096Z,53.93
2023-05-05T06:12:57.139Z,53.51
2023-05-05T06:14:00.588Z,53.92
2023-05-05T06:15:03.602Z,53.36
2023-05-05T06:16:06.908Z,53.01
2023-05-05T06:17:09.990Z,53.21
2023-05-05T06:18:13.031Z,53.46
2023-05-05T06:19:16.108Z,53.97
2023-05-05T06:20:19.457Z,54.61
2023-05-05T06:21:22.354Z,55.09
2023-05-05T06:22:25.401Z,55.43
2023-05-05T06:23:28.509Z,56.37
2023-05-05T06:24:35.104Z,56.08
2023-05-05T06:25:37.980Z,56.25
2023-05-05T06:26:40.932Z,56.57
2023-05-05T06:27:43.904Z,56.41
2023-05-05T06:28:46.751Z,56.55
2023-05-05T06:29:49.602Z,56.80
2023-05-05T06:30:52.629Z,56.75
2023-05-05T06:31:55.693Z,56.52
2023-05-05T06:32:58.491Z,56.21
2023-05-05T06:34:01.389Z,55.86
2023-05-05T06:35:05.067Z,55.90
2023-05-05T06:36:08.181Z,55.88
2023-05-05T06:37:11.225Z,55.86
2023-05-05T06:38:13.982Z,55.99
2023-05-05T06:39:17.041Z,56.06
2023-05-05T06:40:19.937Z,56.02
2023-05-05T06:41:22.748Z,55.93
2023-05-05T06:42:25.623Z,55.79
2023-05-05T06:43:29.389Z,55.75
2023-05-05T06:44:36.372Z,55.44
2023-05-05T06:45:40.056Z,55.32
2023-05-05T06:46:43.782Z,54.75
2023-05-05T06:47:47.034Z,54.86
2023-05-05T06:48:50.239Z,53.94
2023-05-05T06:49:53.034Z,52.23
2023-05-05T06:50:56.663Z,51.06
2023-05-05T06:51:59.514Z,51.35
2023-05-05T06:53:02.426Z,51.42
2023-05-05T06:54:05.204Z,52.34
2023-05-05T06:55:08.563Z,52.17
2023-05-05T06:56:11.760Z,52.57
2023-05-05T06:57:14.591Z,52.85
2023-05-05T06:58:17.418Z,53.25
2023-05-05T06:59:20.272Z,53.78
2023-05-05T07:00:23.406Z,54.26
2023-05-05T07:01:26.813Z,54.75
2023-05-05T07:02:29.763Z,55.31
2023-05-05T07:03:32.740Z,55.29
2023-05-05T07:04:35.683Z,55.12
2023-05-05T07:05:38.513Z,55.02
2023-05-05T07:06:41.653Z,54.94
2023-05-05T07:07:57.126Z,54.58
2023-05-05T07:08:59.989Z,54.40
2023-05-05T07:10:02.728Z,54.42
2023-05-05T07:11:05.543Z,54.42
2023-05-05T07:12:08.451Z,54.27
2023-05-05T07:13:11.340Z,54.43
2023-05-05T07:14:14.142Z,54.08
2023-05-05T07:15:28.167Z,53.84
2023-05-05T07:16:34.731Z,53.79
2023-05-05T07:17:37.704Z,53.77
2023-05-05T07:18:40.507Z,53.95
2023-05-05T07:19:44.121Z,54.61
2023-05-05T07:20:46.996Z,54.58
2023-05-05T07:21:49.760Z,54.63
2023-05-05T07:22:52.708Z,54.57
2023-05-05T07:23:55.606Z,54.56
2023-05-05T07:24:58.429Z,54.83
2023-05-05T07:26:01.270Z,54.71
2023-05-05T07:27:04.052Z,55.08
2023-05-05T07:28:07.091Z,55.00
2023-05-05T07:29:09.949Z,54.33
2023-05-05T07:30:15.545Z,54.00
2023-05-05T07:31:22.051Z,54.05
2023-05-05T07:32:24.926Z,54.34
2023-05-05T07:33:27.803Z,54.12
2023-05-05T07:34:32.791Z,54.39
2023-05-05T07:35:35.548Z,54.54
2023-05-05T07:36:38.507Z,53.86
2023-05-05T07:37:41.309Z,53.59
2023-05-05T07:38:44.510Z,53.67
2023-05-05T07:39:48.671Z,53.73
2023-05-05T07:40:51.480Z,54.45
2023-05-05T07:41:54.306Z,54.74
2023-05-05T07:42:57.039Z,55.03
2023-05-05T07:44:01.331Z,55.24
2023-05-05T07:45:05.354Z,55.01
2023-05-05T07:46:08.428Z,55.04
2023-05-05T07:47:11.437Z,55.24
2023-05-05T07:48:14.159Z,55.03
2023-05-05T07:49:17.320Z,55.32
2023-05-05T07:50:20.550Z,55.16
2023-05-05T07:51:23.308Z,55.51
2023-05-05T07:52:43.724Z,55.89
2023-05-05T07:53:49.155Z,55.99
2023-05-05T07:54:52.341Z,56.90
2023-05-05T07:55:55.641Z,56.54
2023-05-05T07:56:58.389Z,56.87
2023-05-05T07:58:01.304Z,56.76
2023-05-05T07:59:04.237Z,56.94
2023-05-05T08:00:07.914Z,56.93
2023-05-05T08:01:16.974Z,57.18
2023-05-05T08:02:19.957Z,57.52
2023-05-05T08:03:24.870Z,57.51
2023-05-05T08:04:28.020Z,57.49
2023-05-05T08:05:31.196Z,57.60
2023-05-05T08:06:34.083Z,57.40
2023-05-05T08:07:40.928Z,57.37
2023-05-05T08:08:43.903Z,57.45
2023-05-05T08:09:46.646Z,57.18
2023-05-05T08:10:50.449Z,57.52
2023-05-05T08:11:53.178Z,57.73
2023-05-05T08:12:55.964Z,57.99
2023-05-05T08:13:58.751Z,57.85
2023-05-05T08:15:01.600Z,57.98
2023-05-05T08:16:04.841Z,57.96
2023-05-05T08:17:07.699Z,58.10
2023-05-05T08:18:10.480Z,57.81
2023-05-05T08:19:27.560Z,57.95
2023-05-05T08:20:32.114Z,57.71
2023-05-05T08:21:35.432Z,57.40
2023-05-05T08:22:38.265Z,57.51
2023-05-05T08:23:41.127Z,57.78
2023-05-05T08:24:43.872Z,57.92
2023-05-05T08:25:46.728Z,57.91
2023-05-05T08:26:49.666Z,57.97
2023-05-05T08:27:52.555Z,58.18
2023-05-05T08:28:56.772Z,58.23
2023-05-05T08:29:59.627Z,58.36
2023-05-05T08:31:06.830Z,58.93
2023-05-05T08:32:09.856Z,58.77
2023-05-05T08:33:12.813Z,58.68
2023-05-05T08:34:15.990Z,58.85
2023-05-05T08:35:18.857Z,58.76
2023-05-05T08:36:21.879Z,58.55
2023-05-05T08:37:24.893Z,58.76
2023-05-05T08:38:27.818Z,58.34
2023-05-05T08:39:30.769Z,58.27
2023-05-05T08:40:37.001Z,58.68
2023-05-05T08:41:39.841Z,58.31
2023-05-05T08:42:43.126Z,58.04
2023-05-05T08:43:48.115Z,57.75
2023-05-05T08:44:51.526Z,57.60
2023-05-05T08:45:56.270Z,57.75
2023-05-05T08:47:00.810Z,57.76
2023-05-05T08:48:05.459Z,58.06
2023-05-05T08:49:15.463Z,58.22
2023-05-05T08:50:19.957Z,58.56
2023-05-05T08:51:28.366Z,58.49
2023-05-05T08:52:38.876Z,58.61
2023-05-05T08:53:44.861Z,58.12
2023-05-05T08:54:57.163Z,58.06
2023-05-05T08:56:00.914Z,58.15
2023-05-05T08:57:10.463Z,57.67
2023-05-05T08:58:14.494Z,57.49
2023-05-05T08:59:19.016Z,57.51
2023-05-05T09:00:23.476Z,57.32
2023-05-05T09:01:27.255Z,56.85
2023-05-05T09:02:31.282Z,56.88
2023-05-05T09:03:37.261Z,57.08
2023-05-05T09:04:40.811Z,56.98
2023-05-05T09:05:44.416Z,56.99
2023-05-05T09:06:47.403Z,56.63
2023-05-05T09:07:51.041Z,56.76
2023-05-05T09:08:55.132Z,56.48
2023-05-05T09:10:00.701Z,57.08
2023-05-05T09:11:03.537Z,57.02
2023-05-05T09:12:06.598Z,57.05
2023-05-05T09:13:09.517Z,56.74
2023-05-05T09:14:13.008Z,56.97
2023-05-05T09:15:15.987Z,56.79
2023-05-05T09:16:18.793Z,56.89
2023-05-05T09:17:23.927Z,56.59
2023-05-05T09:18:27.225Z,56.38
2023-05-05T09:19:29.971Z,56.36
2023-05-05T09:20:37.298Z,56.49
2023-05-05T09:21:49.694Z,56.54
2023-05-05T09:22:53.210Z,56.50
2023-05-05T09:24:11.841Z,56.55
2023-05-05T09:25:16.535Z,56.24
2023-05-05T09:26:19.516Z,55.79
2023-05-05T09:27:23.374Z,55.63
2023-05-05T09:28:26.988Z,55.85
2023-05-05T09:29:29.944Z,55.75
2023-05-05T09:30:33.830Z,55.84
2023-05-05T09:31:37.775Z,55.91
2023-05-05T09:32:44.717Z,55.76
2023-05-05T09:33:47.729Z,55.52
2023-05-05T09:35:01.236Z,55.70
2023-05-05T09:36:04.099Z,56.09
2023-05-05T09:37:07.241Z,55.58
2023-05-05T09:38:13.174Z,54.93
2023-05-05T09:39:20.170Z,54.74
2023-05-05T09:40:23.118Z,55.56
2023-05-05T09:41:40.277Z,55.90
2023-05-05T09:42:44.675Z,55.42
2023-05-05T09:43:51.934Z,55.55
2023-05-05T09:44:59.121Z,55.36
2023-05-05T09:46:07.713Z,55.28
2023-05-05T09:47:25.916Z,55.18
2023-05-05T09:48:32.451Z,55.15
2023-05-05T09:49:36.818Z,55.18
2023-05-05T09:50:44.136Z,54.72
2023-05-05T09:51:48.051Z,55.06
2023-05-05T09:52:57.522Z,55.16
2023-05-05T09:54:00.573Z,55.50
2023-05-05T09:55:03.691Z,55.15
2023-05-05T09:56:07.101Z,54.78
2023-05-05T09:57:26.109Z,54.45
2023-05-05T09:58:30.651Z,54.87
2023-05-05T09:59:33.874Z,54.68
2023-05-05T10:00:39.268Z,54.69
2023-05-05T10:01:43.823Z,54.40
2023-05-05T10:02:47.158Z,54.76
2023-05-05T10:03:52.219Z,54.82
2023-05-05T10:05:09.043Z,54.68
2023-05-05T10:06:12.015Z,54.52
2023-05-05T10:07:27.442Z,54.48
2023-05-05T10:08:33.588Z,54.74
2023-05-05T10:09:36.484Z,54.99
2023-05-05T10:10:50.871Z,54.96
2023-05-05T10:11:56.660Z,55.84
2023-05-05T10:12:59.567Z,55.64
2023-05-05T10:14:04.750Z,55.45
2023-05-05T10:15:09.052Z,55.15
2023-05-05T10:16:13.378Z,55.52
2023-05-05T10:17:17.428Z,55.20
2023-05-05T10:18:23.311Z,55.40
2023-05-05T10:19:29.497Z,55.07
2023-05-05T10:20:33.449Z,54.73
2023-05-05T10:21:42.088Z,54.69
2023-05-05T10:22:55.968Z,53.94
2023-05-05T10:24:09.481Z,53.46
2023-05-05T10:25:16.004Z,53.23
2023-05-05T10:26:20.048Z,52.44
2023-05-05T10:27:24.662Z,53.35
2023-05-05T10:28:32.769Z,52.79
2023-05-05T10:30:01.520Z,53.48
2023-05-05T10:31:16.420Z,53.39
2023-05-05T10:33:45.281Z,53.09
2023-05-05T10:34:57.573Z,53.40
2023-05-05T10:36:02.654Z,53.69
2023-05-05T10:37:06.979Z,53.15
2023-05-05T10:38:12.898Z,53.30
2023-05-05T10:39:19.890Z,52.90
2023-05-05T10:40:22.802Z,52.84
2023-05-05T10:41:26.901Z,52.91
2023-05-05T10:42:30.074Z,52.90
2023-05-05T10:43:33.737Z,52.72
2023-05-05T10:44:36.736Z,52.68
2023-05-05T10:45:40.184Z,52.97
2023-05-05T10:46:44.373Z,53.02
2023-05-05T10:47:48.182Z,52.92
2023-05-05T10:48:56.841Z,53.07
2023-05-05T10:50:27.020Z,53.19
2023-05-05T10:51:50.086Z,53.49
2023-05-05T10:53:10.953Z,53.40
2023-05-05T10:54:39.808Z,53.09
2023-05-05T10:55:54.935Z,52.93
2023-05-05T10:57:04.942Z,52.13
2023-05-05T10:58:07.834Z,51.55
2023-05-05T10:59:47.574Z,51.46
2023-05-05T11:00:51.251Z,52.05
2023-05-05T11:01:54.245Z,50.74
2023-05-05T11:03:18.706Z,50.46
2023-05-05T11:04:23.534Z,50.39
2023-05-05T11:05:26.781Z,50.72
2023-05-05T11:06:30.830Z,51.19
2023-05-05T11:07:34.556Z,50.93
2023-05-05T11:08:39.694Z,50.55
2023-05-05T11:10:01.621Z,50.74
2023-05-05T11:11:06.107Z,50.54
2023-05-05T11:12:09.165Z,49.60
2023-05-05T11:13:15.054Z,49.16
2023-05-05T11:14:24.093Z,50.19
2023-05-05T11:15:29.988Z,49.28
2023-05-05T11:16:44.982Z,49.69
2023-05-05T11:17:48.337Z,49.95
2023-05-05T11:18:51.249Z,49.83
2023-05-05T11:19:54.116Z,48.83
2023-05-05T11:20:59.809Z,47.74
2023-05-05T11:22:03.254Z,47.70
2023-05-05T11:23:06.061Z,47.28
2023-05-05T11:24:27.704Z,47.27
2023-05-05T11:25:37.373Z,46.52
2023-05-05T11:26:53.758Z,47.17
2023-05-05T11:28:18.355Z,47.39
2023-05-05T11:29:21.422Z,46.36
2023-05-05T11:30:24.238Z,46.43
2023-05-05T11:31:27.816Z,46.18
2023-05-05T11:32:30.854Z,46.23
2023-05-05T11:33:37.794Z,45.95
2023-05-05T11:34:49.848Z,44.47
2023-05-05T11:35:56.028Z,43.34
2023-05-05T11:37:07.395Z,43.44
2023-05-05T11:38:10.431Z,44.00
2023-05-05T11:39:27.476Z,43.63
2023-05-05T11:40:35.023Z,44.22
2023-05-05T11:42:07.983Z,44.21
2023-05-05T11:43:13.211Z,44.82
2023-05-05T11:44:17.378Z,44.07
2023-05-05T11:45:25.027Z,43.82
2023-05-05T11:46:27.890Z,43.45
2023-05-05T11:47:32.073Z,42.62
2023-05-05T11:48:47.106Z,42.89
2023-05-05T11:49:50.231Z,42.70
2023-05-05T11:50:54.017Z,42.62
2023-05-05T11:52:00.975Z,43.41
2023-05-05T11:53:04.678Z,43.45
2023-05-05T11:54:07.543Z,43.34
2023-05-05T11:55:10.982Z,42.42
2023-05-05T11:56:19.225Z,42.50
2023-05-05T11:57:28.372Z,41.09
2023-05-05T11:58:31.168Z,42.05
2023-05-05T12:00:08.126Z,41.75
2023-05-05T12:01:11.799Z,41.59
2023-05-05T12:02:21.254Z,40.93
2023-05-05T12:03:24.463Z,41.58
2023-05-05T12:04:27.490Z,41.93
2023-05-05T12:05:30.826Z,41.66
2023-05-05T12:06:34.101Z,41.33
2023-05-05T12:07:37.068Z,41.13
2023-05-05T12:08:41.160Z,41.48
2023-05-05T12:09:45.866Z,41.94
2023-05-05T12:10:48.681Z,42.04
2023-05-05T12:11:56.960Z,41.75
2023-05-05T12:13:00.060Z,41.51
2023-05-05T12:14:10.499Z,40.23
2023-05-05T12:15:13.235Z,39.83
2023-05-05T12:16:16.693Z,39.81
2023-05-05T12:17:23.423Z,40.55
2023-05-05T12:18:26.594Z,40.22
2023-05-05T12:19:33.112Z,39.87
2023-05-05T12:20:36.634Z,38.53
2023-05-05T12:21:39.552Z,40.15
2023-05-05T12:22:42.474Z,40.27
2023-05-05T12:23:45.796Z,40.68
2023-05-05T12:24:55.109Z,40.26
2023-05-05T12:25:57.956Z,39.15
2023-05-05T12:27:11.123Z,38.29
2023-05-05T12:28:13.983Z,37.94
2023-05-05T12:29:29.726Z,37.30
2023-05-05T12:30:32.621Z,37.80
2023-05-05T12:31:38.933Z,38.37
2023-05-05T12:32:42.314Z,38.35
2023-05-05T12:33:45.879Z,38.62
2023-05-05T12:34:50.644Z,38.76
2023-05-05T12:35:53.564Z,39.20
2023-05-05T12:36:56.405Z,38.69
2023-05-05T12:37:59.307Z,37.87
2023-05-05T12:39:03.645Z,37.86
2023-05-05T12:40:08.983Z,38.60
2023-05-05T12:41:18.041Z,38.93
2023-05-05T12:42:22.141Z,39.02
2023-05-05T12:43:29.057Z,38.32
2023-05-05T12:44:39.257Z,36.26
2023-05-05T12:45:42.753Z,36.23
2023-05-05T12:46:46.836Z,35.72
2023-05-05T12:47:49.675Z,35.74
2023-05-05T12:49:04.777Z,35.64
2023-05-05T12:50:08.228Z,35.81
2023-05-05T12:51:16.863Z,34.90
2023-05-05T12:52:20.854Z,34.75
2023-05-05T12:53:25.016Z,33.54
2023-05-05T12:54:30.542Z,33.48
2023-05-05T12:55:37.808Z,33.59
2023-05-05T12:56:42.986Z,33.46
2023-05-05T12:58:02.064Z,33.87
2023-05-05T12:59:07.676Z,34.89
2023-05-05T13:00:15.959Z,35.42
2023-05-05T13:01:18.864Z,35.22
2023-05-05T13:02:33.282Z,34.73
2023-05-05T13:03:36.159Z,34.72
2023-05-05T13:04:53.023Z,34.37
2023-05-05T13:05:56.047Z,34.22
2023-05-05T13:07:11.648Z,33.75
2023-05-05T13:08:14.725Z,33.73
2023-05-05T13:09:28.326Z,33.63
2023-05-05T13:10:31.423Z,34.10
2023-05-05T13:11:35.442Z,33.45
2023-05-05T13:12:38.310Z,33.49
2023-05-05T13:13:42.305Z,34.09
2023-05-05T13:14:46.521Z,34.22
2023-05-05T13:15:49.423Z,34.74
2023-05-05T13:16:52.870Z,35.17
2023-05-05T13:18:02.794Z,33.79
2023-05-05T13:19:06.205Z,33.92
2023-05-05T13:20:10.823Z,34.03
2023-05-05T13:21:13.784Z,34.41
2023-05-05T13:22:16.734Z,35.54
2023-05-05T13:23:19.950Z,35.33
2023-05-05T13:24:31.674Z,35.03
2023-05-05T13:25:45.610Z,34.27
2023-05-05T13:26:48.839Z,33.99
2023-05-05T13:27:51.604Z,34.51
2023-05-05T13:28:54.984Z,34.78
2023-05-05T13:29:57.859Z,34.73
2023-05-05T13:31:00.725Z,33.91
2023-05-05T13:32:03.575Z,32.76
2023-05-05T13:33:06.466Z,32.74
2023-05-05T13:34:09.255Z,33.55
2023-05-05T13:35:14.642Z,32.59
2023-05-05T13:36:18.849Z,31.84
2023-05-05T13:37:21.861Z,32.41
2023-05-05T13:38:24.648Z,33.22
2023-05-05T13:39:27.448Z,33.01
2023-05-05T13:40:30.520Z,32.19
2023-05-05T13:41:33.325Z,32.42
2023-05-05T13:42:36.066Z,31.40
2023-05-05T13:43:38.865Z,31.52
2023-05-05T13:44:41.634Z,31.46
2023-05-05T13:45:44.725Z,31.61
2023-05-05T13:46:47.618Z,32.22
2023-05-05T13:47:51.031Z,31.58
2023-05-05T13:48:56.678Z,31.09
2023-05-05T13:49:59.719Z,31.01
2023-05-05T13:51:02.707Z,31.44
2023-05-05T13:52:06.039Z,30.84
2023-05-05T13:53:08.860Z,30.42
2023-05-05T13:54:11.674Z,30.59
2023-05-05T13:55:14.455Z,30.68
2023-05-05T13:56:18.345Z,30.41
2023-05-05T13:57:21.287Z,30.77
2023-05-05T13:58:24.205Z,32.13
2023-05-05T13:59:27.392Z,32.20
2023-05-05T14:00:30.991Z,31.70
2023-05-05T14:01:34.059Z,31.53
2023-05-05T14:02:37.070Z,30.31
2023-05-05T14:03:39.966Z,30.04
2023-05-05T14:04:42.906Z,29.33
2023-05-05T14:05:46.227Z,29.78
2023-05-05T14:06:49.242Z,30.07
2023-05-05T14:07:52.358Z,29.57
2023-05-05T14:08:55.156Z,29.70
2023-05-05T14:09:57.947Z,30.41
2023-05-05T14:11:01.987Z,30.38
2023-05-05T14:12:05.253Z,30.32